Time;durP1;ratioP1;P1;durP2;ratioP2;P2;SDS_P1;SDS_P2;PMS_P1;PMS_P2;Temp;Humidity;BMP_temperature;BMP_pressure;BME280_temperature;BME280_humidity;BME280_pressure;Samples;Min_cycle;Max_cycle;Signal;HPM_P1;HPM_P2
2021/04/23 00:01:54;;;;;;;2.43;2.23;;;;;;;11.07;100.00;97631.63;5031920;28;20313;-83
2021/04/23 00:04:21;;;;;;;3.33;2.70;;;;;;;11.22;100.00;97638.22;5032244;28;20568;-83
2021/04/23 00:06:52;;;;;;;3.40;2.30;;;;;;;11.10;100.00;97642.72;5032121;28;20194;-83
2021/04/23 00:09:23;;;;;;;2.57;2.37;;;;;;;11.12;100.00;97653.97;5031837;28;20273;-83
2021/04/23 00:11:54;;;;;;;3.07;2.20;;;;;;;11.30;100.00;97643.69;5031686;28;20326;-83
2021/04/23 00:14:26;;;;;;;4.10;3.10;;;;;;;11.00;100.00;97639.19;5031976;28;20275;-83
2021/04/23 00:16:53;;;;;;;11.20;7.53;;;;;;;10.86;100.00;97708.72;5031335;28;20662;-82
2021/04/23 00:19:22;;;;;;;13.60;8.03;;;;;;;10.98;100.00;97792.84;5031336;28;20364;-83
2021/04/23 00:21:50;;;;;;;7.37;4.50;;;;;;;11.00;100.00;97838.28;5031569;28;20205;-82
2021/04/23 00:24:17;;;;;;;4.00;3.63;;;;;;;10.99;100.00;97832.22;5033672;28;20628;-83
2021/04/23 00:26:45;;;;;;;4.83;3.50;;;;;;;11.12;100.00;97755.75;5035782;28;20282;-83
2021/04/23 00:29:13;;;;;;;5.73;5.13;;;;;;;11.05;100.00;97754.56;5035253;28;20581;-83
2021/04/23 00:31:41;;;;;;;4.70;4.00;;;;;;;10.66;100.00;97776.06;5035505;28;20203;-83
2021/04/23 00:34:07;;;;;;;4.30;3.87;;;;;;;10.82;100.00;97830.09;5035582;28;20249;-82
2021/04/23 00:36:34;;;;;;;8.33;4.90;;;;;;;10.78;100.00;97853.16;5035596;28;20742;-82
2021/04/23 00:39:01;;;;;;;5.40;4.10;;;;;;;10.71;100.00;97881.72;5035109;28;20269;-82
2021/04/23 00:41:31;;;;;;;5.93;5.23;;;;;;;10.47;100.00;97905.50;5035089;28;20669;-83
2021/04/23 00:43:58;;;;;;;6.13;4.07;;;;;;;10.76;100.00;97901.56;5035103;28;20289;-83
2021/04/23 00:46:27;;;;;;;5.73;4.77;;;;;;;10.71;100.00;97913.28;5035446;28;20251;-82
2021/04/23 00:48:54;;;;;;;6.63;5.20;;;;;;;10.73;100.00;97926.31;5035166;28;20285;-82
2021/04/23 00:51:24;;;;;;;9.17;6.60;;;;;;;10.86;100.00;97919.13;5035236;28;20273;-83
2021/04/23 00:53:53;;;;;;;10.07;7.07;;;;;;;10.57;100.00;97931.09;5034889;28;20272;-83
2021/04/23 00:56:22;;;;;;;12.43;9.10;;;;;;;10.62;100.00;97963.13;5035329;28;20633;-83
2021/04/23 00:58:50;;;;;;;13.03;8.63;;;;;;;10.78;100.00;97971.50;5034936;28;20223;-83
2021/04/23 01:01:21;;;;;;;4.07;3.00;;;;;;;10.58;100.00;97964.31;5035266;28;20201;-83
2021/04/23 01:03:49;;;;;;;5.73;4.60;;;;;;;10.68;100.00;97934.56;5034820;28;20279;-83
2021/04/23 01:06:19;;;;;;;6.67;5.13;;;;;;;10.85;100.00;97937.69;5034820;28;20665;-83
2021/04/23 01:08:46;;;;;;;9.90;5.50;;;;;;;10.63;100.00;97931.47;5034927;28;20629;-83
2021/04/23 01:11:15;;;;;;;6.57;4.53;;;;;;;10.41;100.00;97934.03;5034849;28;20202;-83
2021/04/23 01:13:42;;;;;;;8.53;4.13;;;;;;;10.59;100.00;97958.09;5034558;28;20321;-83
2021/04/23 01:16:12;;;;;;;3.43;3.13;;;;;;;10.46;100.00;97959.03;5034975;28;20194;-83
2021/04/23 01:18:40;;;;;;;3.30;2.93;;;;;;;10.50;100.00;97943.03;5034823;28;20246;-83
2021/04/23 01:21:09;;;;;;;3.10;2.80;;;;;;;10.37;100.00;97883.50;5034599;28;20602;-83
2021/04/23 01:23:37;;;;;;;3.20;2.90;;;;;;;10.36;100.00;97844.22;5034366;28;20234;-82
2021/04/23 01:26:07;;;;;;;2.53;2.33;;;;;;;10.72;100.00;97829.97;5034409;28;20207;-83
2021/04/23 01:28:34;;;;;;;15.53;10.47;;;;;;;10.62;100.00;97827.22;5034558;28;20203;-83
2021/04/23 01:31:05;;;;;;;14.00;9.77;;;;;;;10.77;100.00;97842.75;5034843;28;20230;-83
2021/04/23 01:33:33;;;;;;;12.13;8.87;;;;;;;10.64;100.00;97861.31;5034277;28;20647;-83
2021/04/23 01:36:00;;;;;;;14.63;8.20;;;;;;;10.74;100.00;97864.03;5034016;28;20254;-83
2021/04/23 01:38:27;;;;;;;6.23;5.23;;;;;;;10.85;100.00;97864.03;5034426;28;20321;-83
2021/04/23 01:40:54;;;;;;;11.27;7.03;;;;;;;10.67;100.00;97840.88;5034189;28;20587;-83
2021/04/23 01:43:21;;;;;;;7.13;6.10;;;;;;;10.41;100.00;97886.72;5034333;28;20580;-83
2021/04/23 01:45:48;;;;;;;5.83;5.10;;;;;;;10.62;100.00;97960.50;5033833;28;20290;-83
2021/04/23 01:48:17;;;;;;;7.70;5.97;;;;;;;10.60;100.00;98028.97;5034556;28;20639;-83
2021/04/23 01:50:44;;;;;;;5.77;4.73;;;;;;;10.33;100.00;98026.63;5034024;28;20238;-82
2021/04/23 01:53:11;;;;;;;5.17;3.50;;;;;;;10.25;100.00;97989.50;5033964;28;20203;-82
2021/04/23 01:55:40;;;;;;;4.57;3.43;;;;;;;10.40;100.00;97967.38;5033672;28;20210;-83
2021/04/23 01:58:08;;;;;;;2.40;2.30;;;;;;;10.31;100.00;97912.88;5033844;28;20226;-83
2021/04/23 02:00:37;;;;;;;2.60;2.40;;;;;;;10.79;100.00;97875.03;5033780;28;20199;-83
2021/04/23 02:03:06;;;;;;;3.87;3.13;;;;;;;10.83;100.00;97856.25;5034046;28;20575;-83
2021/04/23 02:05:35;;;;;;;3.13;2.83;;;;;;;10.77;100.00;97848.00;5033571;28;20297;-84
2021/04/23 02:08:02;;;;;;;3.07;2.80;;;;;;;10.80;100.00;97850.41;5033471;28;20278;-83
2021/04/23 02:10:32;;;;;;;3.63;3.27;;;;;;;10.76;100.00;97817.41;5033696;28;20260;-83
2021/04/23 02:13:00;;;;;;;4.87;2.97;;;;;;;10.64;100.00;97796.41;5033401;28;20236;-82
2021/04/23 02:15:28;;;;;;;3.60;3.30;;;;;;;10.72;100.00;97816.81;5033843;28;20194;-83
2021/04/23 02:17:57;;;;;;;2.30;2.20;;;;;;;10.67;100.00;97819.81;5033619;28;20222;-83
2021/04/23 02:20:27;;;;;;;2.73;2.50;;;;;;;10.82;100.00;97830.91;5033764;28;20298;-83
2021/04/23 02:22:56;;;;;;;3.90;3.43;;;;;;;10.70;100.00;97827.47;5033657;28;20199;-82
2021/04/23 02:25:23;;;;;;;3.13;2.87;;;;;;;10.78;100.00;97820.78;5033245;28;20289;-83
2021/04/23 02:27:51;;;;;;;3.30;3.00;;;;;;;10.83;100.00;97842.28;5033218;28;20230;-83
2021/04/23 02:30:24;;;;;;;3.50;3.20;;;;;;;10.86;100.00;97863.06;5033377;28;20195;-83
2021/04/23 02:32:51;;;;;;;3.60;3.30;;;;;;;10.63;100.00;97884.13;5033085;28;20682;-83
2021/04/23 02:35:19;;;;;;;3.10;2.90;;;;;;;10.61;100.00;97964.91;5033393;28;20671;-82
2021/04/23 02:37:46;;;;;;;3.10;2.90;;;;;;;10.48;100.00;98012.31;5032972;28;20669;-83
2021/04/23 02:40:16;;;;;;;3.40;3.00;;;;;;;10.59;100.00;98058.84;5033232;28;20667;-83
2021/04/23 02:42:48;;;;;;;3.23;3.03;;;;;;;10.59;100.00;97990.47;5032901;28;20241;-83
2021/04/23 02:45:18;;;;;;;4.77;4.23;;;;;;;10.71;100.00;98021.13;5033062;28;20582;-83
2021/04/23 02:47:47;;;;;;;4.43;3.90;;;;;;;10.63;100.00;97938.50;5032220;28;20229;-83
2021/04/23 02:50:16;;;;;;;3.50;3.20;;;;;;;10.53;100.00;97954.16;5033126;28;20285;-83
2021/04/23 02:52:43;;;;;;;4.17;3.77;;;;;;;10.45;100.00;97961.75;5032516;28;20198;-82
2021/04/23 02:55:12;;;;;;;3.87;3.57;;;;;;;10.30;100.00;97957.69;5033036;28;20199;-83
2021/04/23 02:57:39;;;;;;;4.33;3.40;;;;;;;10.39;100.00;97985.88;5032499;28;20753;-83
2021/04/23 03:00:10;;;;;;;3.70;3.40;;;;;;;10.47;100.00;97968.59;5033116;28;20209;-83
2021/04/23 03:02:37;;;;;;;3.80;3.50;;;;;;;10.23;100.00;97947.59;5032285;28;20186;-83
2021/04/23 03:05:05;;;;;;;7.17;5.23;;;;;;;10.15;100.00;97965.72;5023075;28;20218;-82
2021/04/23 03:07:33;;;;;;;8.57;7.13;;;;;;;10.25;100.00;97992.13;5018910;28;20238;-82
2021/04/23 03:10:00;;;;;;;6.33;4.30;;;;;;;10.31;100.00;98004.03;5031726;28;20202;-81
2021/04/23 03:12:26;;;;;;;4.13;3.73;;;;;;;10.34;100.00;98035.34;5031960;28;20239;-82
2021/04/23 03:14:53;;;;;;;3.03;2.83;;;;;;;10.54;100.00;98018.09;5032378;28;20290;-82
2021/04/23 03:17:20;;;;;;;4.03;3.00;;;;;;;10.52;100.00;97962.13;5030906;28;20248;-82
2021/04/23 03:19:47;;;;;;;2.93;2.73;;;;;;;10.52;100.00;97935.84;5030712;28;20203;-82
2021/04/23 03:22:15;;;;;;;4.67;3.17;;;;;;;10.68;100.00;97905.63;5030265;28;20233;-82
2021/04/23 03:24:41;;;;;;;2.83;2.60;;;;;;;10.48;100.00;97864.28;5031294;28;20234;-83
2021/04/23 03:27:08;;;;;;;5.47;3.10;;;;;;;10.24;100.00;97833.63;5030818;28;20633;-83
2021/04/23 03:29:35;;;;;;;4.83;2.90;;;;;;;10.12;100.00;97818.84;5031221;28;20233;-83
2021/04/23 03:32:02;;;;;;;4.47;2.70;;;;;;;10.04;100.00;97826.44;5030853;28;20233;-82
2021/04/23 03:34:29;;;;;;;2.53;2.40;;;;;;;9.96;100.00;97824.41;5031122;28;20198;-82
2021/04/23 03:36:56;;;;;;;4.83;2.80;;;;;;;10.01;100.00;97831.97;5031141;28;20206;-83
2021/04/23 03:39:24;;;;;;;3.07;2.87;;;;;;;10.12;100.00;97844.28;5030668;28;20229;-82
2021/04/23 03:41:51;;;;;;;3.53;2.73;;;;;;;10.27;100.00;97829.97;5030973;28;20958;-82
2021/04/23 03:44:18;;;;;;;3.50;2.90;;;;;;;10.29;100.00;97833.34;5030978;28;20580;-82
2021/04/23 03:46:45;;;;;;;5.83;2.97;;;;;;;10.39;100.00;97841.31;5031097;28;20202;-83
2021/04/23 03:49:11;;;;;;;3.03;2.83;;;;;;;10.59;100.00;97835.34;5030600;28;20252;-82
2021/04/23 03:51:38;;;;;;;4.40;3.40;;;;;;;10.32;100.00;97748.16;5030955;28;20294;-83
2021/04/23 03:54:05;;;;;;;4.67;4.27;;;;;;;10.17;100.00;97821.94;5030772;28;20194;-82
2021/04/23 03:56:33;;;;;;;9.67;8.77;;;;;;;10.17;100.00;97915.69;5030902;28;20282;-82
2021/04/23 03:59:00;;;;;;;8.00;7.20;;;;;;;10.34;100.00;98003.81;5033700;28;20801;-83
2021/04/23 04:01:27;;;;;;;4.57;3.77;;;;;;;10.48;100.00;98029.88;5034548;28;20344;-83
2021/04/23 04:03:55;;;;;;;4.90;3.53;;;;;;;10.57;100.00;98009.97;5035173;28;20202;-82
2021/04/23 04:06:22;;;;;;;3.77;3.47;;;;;;;10.46;100.00;97963.47;5034943;28;20205;-83
2021/04/23 04:08:49;;;;;;;4.07;3.67;;;;;;;10.61;100.00;97948.31;5034615;28;20237;-83
2021/04/23 04:11:15;;;;;;;10.80;9.37;;;;;;;10.23;100.00;97937.09;5034701;28;20603;-83
2021/04/23 04:13:43;;;;;;;11.27;9.77;;;;;;;10.39;100.00;97996.41;5033968;28;20729;-83
2021/04/23 04:16:10;;;;;;;8.00;7.30;;;;;;;10.57;100.00;98034.47;5034695;28;20286;-83
2021/04/23 04:18:37;;;;;;;8.03;7.30;;;;;;;10.60;100.00;98012.34;5034166;28;20322;-83
2021/04/23 04:21:04;;;;;;;7.50;6.33;;;;;;;10.60;100.00;97994.81;5034420;28;20588;-82
2021/04/23 04:23:31;;;;;;;8.60;7.27;;;;;;;10.80;100.00;97977.47;5034324;28;20216;-82
2021/04/23 04:26:01;;;;;;;22.67;19.03;;;;;;;10.90;100.00;97956.56;5034185;28;20579;-83
2021/04/23 04:28:30;;;;;;;14.67;11.43;;;;;;;10.88;100.00;97934.81;5035133;28;20709;-83
2021/04/23 04:30:58;;;;;;;13.07;11.53;;;;;;;10.83;100.00;97956.19;5035139;28;20209;-83
2021/04/23 04:33:25;;;;;;;13.17;11.07;;;;;;;10.64;100.00;97964.69;5035171;28;20263;-83
2021/04/23 04:35:53;;;;;;;12.47;11.17;;;;;;;10.34;100.00;97980.97;5035248;28;20199;-81
2021/04/23 04:38:20;;;;;;;11.10;9.17;;;;;;;10.35;100.00;98023.88;5034898;28;20745;-81
2021/04/23 04:40:49;;;;;;;14.03;9.40;;;;;;;10.43;100.00;98063.59;5035004;28;20213;-81
2021/04/23 04:43:17;;;;;;;7.40;6.70;;;;;;;10.45;100.00;98012.53;5034915;28;20293;-82
2021/04/23 04:45:45;;;;;;;4.20;3.77;;;;;;;10.55;100.00;97954.03;5035147;28;20728;-83
2021/04/23 04:48:13;;;;;;;4.73;4.33;;;;;;;10.66;100.00;97906.69;5035006;28;20194;-83
2021/04/23 04:50:43;;;;;;;4.03;3.50;;;;;;;10.59;100.00;97845.88;5034937;28;20198;-82
2021/04/23 04:53:10;;;;;;;15.30;11.50;;;;;;;10.45;100.00;97832.97;5035197;28;20198;-82
2021/04/23 04:55:40;;;;;;;64.63;44.47;;;;;;;10.56;100.00;97848.72;5034996;28;20289;-83
2021/04/23 04:58:09;;;;;;;23.40;16.33;;;;;;;10.65;100.00;97865.59;5034664;28;20302;-82
2021/04/23 05:00:37;;;;;;;14.97;10.70;;;;;;;10.74;100.00;97903.47;5034753;28;20846;-82
2021/04/23 05:03:05;;;;;;;4.53;4.13;;;;;;;10.66;100.00;97902.28;5034790;28;20667;-82
2021/04/23 05:05:34;;;;;;;27.80;20.90;;;;;;;10.75;100.00;97863.09;5034827;28;20577;-83
2021/04/23 05:08:01;;;;;;;130.83;84.60;;;;;;;10.85;100.00;97879.81;5034650;28;20201;-83
2021/04/23 05:10:28;;;;;;;77.17;47.83;;;;;;;10.83;100.00;97898.34;5033901;28;20198;-83
2021/04/23 05:12:55;;;;;;;1045.33;549.50;;;;;;;10.80;100.00;97900.38;5034267;28;20230;-82
2021/04/23 05:15:22;;;;;;;252.00;124.57;;;;;;;10.62;100.00;97906.09;5034782;28;20207;-83
2021/04/23 05:17:49;;;;;;;38.03;21.83;;;;;;;10.60;100.00;97963.25;5034360;28;20289;-83
2021/04/23 05:20:18;;;;;;;18.60;15.03;;;;;;;10.58;100.00;98012.47;5034819;28;20202;-83
2021/04/23 05:22:46;;;;;;;22.07;16.60;;;;;;;10.90;100.00;98035.47;5034151;28;20206;-83
2021/04/23 05:25:20;;;;;;;22.77;15.03;;;;;;;10.68;100.00;98016.09;5034657;28;20285;-83
2021/04/23 05:27:48;;;;;;;10.47;9.00;;;;;;;10.81;100.00;97962.56;5034327;28;20278;-82
2021/04/23 05:30:17;;;;;;;8.40;5.43;;;;;;;10.91;100.00;97811.78;5034699;28;20285;-83
2021/04/23 05:32:44;;;;;;;11.30;5.30;;;;;;;10.99;100.00;97716.44;5034305;28;20216;-82
2021/04/23 05:35:13;;;;;;;7.57;5.60;;;;;;;11.14;100.00;97662.53;5034110;28;20234;-82
2021/04/23 05:37:41;;;;;;;7.17;6.27;;;;;;;11.19;100.00;97612.19;5034141;28;20281;-82
2021/04/23 05:40:12;;;;;;;7.70;6.17;;;;;;;11.27;100.00;97587.84;5034539;28;20238;-82
2021/04/23 05:42:39;;;;;;;5.33;4.83;;;;;;;11.22;100.00;97587.38;5034231;28;20179;-82
2021/04/23 05:45:09;;;;;;;5.60;5.10;;;;;;;11.13;100.00;97586.38;5034090;28;20640;-82
2021/04/23 05:47:37;;;;;;;5.33;4.80;;;;;;;11.15;100.00;97587.06;5034169;28;20191;-82
2021/04/23 05:50:05;;;;;;;7.80;5.13;;;;;;;11.12;100.00;97609.22;5034420;28;20278;-82
2021/04/23 05:52:32;;;;;;;7.40;5.70;;;;;;;11.06;100.00;97620.25;5033752;28;20690;-82
2021/04/23 05:54:59;;;;;;;6.43;5.40;;;;;;;11.07;100.00;97629.81;5033798;28;20648;-82
2021/04/23 05:57:27;;;;;;;6.10;5.50;;;;;;;10.92;100.00;97644.25;5033805;28;20203;-82
2021/04/23 05:59:53;;;;;;;6.47;5.87;;;;;;;10.88;100.00;97646.31;5033996;28;20317;-82
2021/04/23 06:02:20;;;;;;;8.33;5.53;;;;;;;10.87;100.00;97662.19;5033775;28;20198;-83
2021/04/23 06:04:47;;;;;;;8.40;5.47;;;;;;;10.92;100.00;97655.63;5033775;28;20293;-82
2021/04/23 06:07:14;;;;;;;6.33;5.73;;;;;;;10.98;100.00;97663.94;5033417;28;20672;-82
2021/04/23 06:09:41;;;;;;;6.13;5.53;;;;;;;11.02;100.00;97658.31;5033774;28;20746;-82
2021/04/23 06:12:08;;;;;;;7.67;6.93;;;;;;;10.96;100.00;97661.44;5033186;28;20372;-82
2021/04/23 06:14:36;;;;;;;6.03;5.53;;;;;;;11.01;100.00;97651.38;5033575;28;20195;-82
2021/04/23 06:17:04;;;;;;;5.57;5.07;;;;;;;11.14;100.00;97627.50;5033286;28;20206;-82
2021/04/23 06:19:33;;;;;;;8.37;7.57;;;;;;;11.24;100.00;97611.78;5033386;28;20226;-82
2021/04/23 06:22:00;;;;;;;5.67;5.03;;;;;;;11.24;100.00;97583.66;5033309;28;20756;-82
2021/04/23 06:24:27;;;;;;;4.97;4.57;;;;;;;11.29;100.00;97549.06;5033547;28;20195;-82
2021/04/23 06:26:54;;;;;;;5.23;4.70;;;;;;;11.32;100.00;97517.19;5032532;28;20246;-81
2021/04/23 06:29:21;;;;;;;5.67;4.60;;;;;;;11.43;100.00;97475.00;5031758;28;20219;-82
2021/04/23 06:31:48;;;;;;;5.10;3.87;;;;;;;11.57;100.00;97487.78;5032970;28;20569;-82
2021/04/23 06:34:15;;;;;;;5.17;4.27;;;;;;;11.45;100.00;97475.69;5033247;28;20209;-82
2021/04/23 06:36:42;;;;;;;5.27;4.00;;;;;;;11.48;100.00;97457.00;5033084;28;20302;-82
2021/04/23 06:39:15;;;;;;;5.17;4.67;;;;;;;11.47;100.00;97450.06;5033181;28;20245;-83
2021/04/23 06:41:43;;;;;;;5.57;5.07;;;;;;;11.49;100.00;97465.72;5033132;28;20282;-82
2021/04/23 06:44:10;;;;;;;5.13;4.57;;;;;;;11.69;100.00;97512.19;5032960;28;20198;-82
2021/04/23 06:46:37;;;;;;;6.17;4.90;;;;;;;11.78;100.00;97500.03;5033022;28;20584;-82
2021/04/23 06:49:05;;;;;;;5.10;4.67;;;;;;;11.72;100.00;97480.34;5032835;28;20637;-82
2021/04/23 06:51:33;;;;;;;7.00;5.03;;;;;;;11.74;100.00;97477.53;5032845;28;20683;-82
2021/04/23 06:54:00;;;;;;;5.13;3.70;;;;;;;11.76;100.00;97497.53;5033187;28;20304;-82
2021/04/23 06:56:27;;;;;;;8.73;6.10;;;;;;;11.90;100.00;97505.06;5032902;28;20250;-82
2021/04/23 06:58:53;;;;;;;5.50;5.00;;;;;;;11.80;100.00;97469.94;5032591;28;20226;-82
2021/04/23 07:01:20;;;;;;;6.90;6.20;;;;;;;11.81;100.00;97478.66;5032662;28;20302;-82
2021/04/23 07:03:47;;;;;;;14.97;13.50;;;;;;;12.07;100.00;97464.03;5032436;28;20775;-82
2021/04/23 07:06:15;;;;;;;8.67;7.80;;;;;;;12.00;100.00;97443.66;5032501;28;20187;-82
2021/04/23 07:08:42;;;;;;;13.47;9.33;;;;;;;12.10;100.00;97429.50;5032435;28;20235;-82
2021/04/23 07:11:09;;;;;;;5.03;4.63;;;;;;;12.15;100.00;97392.16;5032539;28;20758;-82
2021/04/23 07:13:36;;;;;;;5.17;4.57;;;;;;;12.17;100.00;97407.88;5032219;28;20321;-82
2021/04/23 07:16:03;;;;;;;5.57;4.73;;;;;;;12.34;100.00;97412.41;5032165;28;20646;-82
2021/04/23 07:18:30;;;;;;;4.80;4.33;;;;;;;12.40;100.00;97396.03;5032229;28;20274;-82
2021/04/23 07:20:57;;;;;;;8.10;5.80;;;;;;;12.58;100.00;97388.22;5032473;28;20233;-83
2021/04/23 07:23:25;;;;;;;7.90;7.10;;;;;;;12.74;100.00;97334.81;5032335;28;20198;-83
2021/04/23 07:25:52;;;;;;;4.70;3.57;;;;;;;12.73;100.00;97269.88;5032393;28;20581;-83
2021/04/23 07:28:19;;;;;;;8.37;3.70;;;;;;;12.89;100.00;97253.41;5031892;28;20337;-83
2021/04/23 07:30:47;;;;;;;7.00;6.07;;;;;;;13.05;100.00;97233.25;5032629;28;20224;-82
2021/04/23 07:33:13;;;;;;;8.40;7.60;;;;;;;13.18;100.00;97200.41;5031633;28;20248;-82
2021/04/23 07:35:41;;;;;;;4.13;3.73;;;;;;;13.21;100.00;97208.00;5032129;28;20285;-82
2021/04/23 07:38:09;;;;;;;3.43;3.13;;;;;;;13.34;100.00;97189.19;5031954;28;20261;-82
2021/04/23 07:40:37;;;;;;;5.77;3.43;;;;;;;13.26;100.00;97182.00;5031963;28;20802;-82
2021/04/23 07:43:04;;;;;;;5.80;2.83;;;;;;;13.32;100.00;97161.09;5031994;28;20745;-83
2021/04/23 07:45:31;;;;;;;2.97;2.77;;;;;;;13.23;100.00;97119.78;5032330;28;20285;-82
2021/04/23 07:47:58;;;;;;;12.77;2.90;;;;;;;13.34;100.00;97137.19;5031872;28;20208;-82
2021/04/23 07:50:28;;;;;;;3.20;3.00;;;;;;;13.40;100.00;97120.72;5032386;28;20222;-83
2021/04/23 07:52:55;;;;;;;3.43;3.13;;;;;;;13.67;100.00;97126.81;5031743;28;20570;-82
2021/04/23 07:55:23;;;;;;;4.07;3.30;;;;;;;13.69;100.00;97109.00;5031953;28;20198;-82
2021/04/23 07:57:53;;;;;;;63.63;24.53;;;;;;;13.78;100.00;97110.69;5031693;28;20290;-82
2021/04/23 08:00:23;;;;;;;11.33;8.80;;;;;;;13.76;100.00;97065.13;5031592;28;20203;-82
2021/04/23 08:02:50;;;;;;;3.20;2.90;;;;;;;13.85;100.00;97021.06;5032136;28;20645;-82
2021/04/23 08:05:18;;;;;;;3.83;2.90;;;;;;;13.64;100.00;96969.47;5031793;28;20206;-82
2021/04/23 08:07:45;;;;;;;2.90;2.70;;;;;;;13.87;100.00;96979.47;5031285;28;20246;-82
2021/04/23 08:10:13;;;;;;;3.43;3.13;;;;;;;13.96;100.00;96962.63;5032057;28;20226;-81
2021/04/23 08:12:41;;;;;;;4.63;3.40;;;;;;;14.03;100.00;96910.78;5031390;28;20285;-82
2021/04/23 08:15:10;;;;;;;3.57;3.03;;;;;;;14.34;100.00;96876.56;5031630;28;20242;-82
2021/04/23 08:17:38;;;;;;;2.97;2.77;;;;;;;14.19;100.00;96815.59;5031330;28;20285;-82
2021/04/23 08:20:06;;;;;;;4.30;3.90;;;;;;;14.42;100.00;96823.66;5031532;28;20261;-81
2021/04/23 08:22:33;;;;;;;4.43;4.03;;;;;;;14.61;100.00;96768.72;5031477;28;20209;-82
2021/04/23 08:25:00;;;;;;;4.27;3.20;;;;;;;14.68;100.00;96740.59;5031451;28;20282;-81
2021/04/23 08:27:27;;;;;;;3.90;3.60;;;;;;;14.79;100.00;96727.00;5031479;28;20203;-82
2021/04/23 08:29:54;;;;;;;3.67;3.33;;;;;;;14.95;100.00;96665.19;5031561;28;20257;-82
2021/04/23 08:32:23;;;;;;;4.00;3.17;;;;;;;14.90;100.00;96588.16;5031296;28;20206;-82
2021/04/23 08:34:50;;;;;;;6.50;3.80;;;;;;;14.85;100.00;96580.72;5031517;28;20199;-82
2021/04/23 08:37:17;;;;;;;3.93;3.40;;;;;;;14.89;100.00;96512.41;5031349;28;20238;-82
2021/04/23 08:39:44;;;;;;;11.53;8.30;;;;;;;14.80;100.00;96569.06;5031417;28;20219;-83
2021/04/23 08:42:11;;;;;;;10.77;7.43;;;;;;;14.96;100.00;96550.38;5031420;28;20194;-81
2021/04/23 08:44:37;;;;;;;3.80;3.50;;;;;;;14.72;100.00;96530.22;5032394;28;20203;-82
2021/04/23 08:47:05;;;;;;;21.43;13.20;;;;;;;14.85;100.00;96579.91;5035091;28;20249;-82
2021/04/23 08:49:37;;;;;;;10.90;10.00;;;;;;;15.15;100.00;96535.81;5035172;28;20191;-82
2021/04/23 08:52:04;;;;;;;5.03;4.50;;;;;;;15.20;100.00;96513.06;5035097;28;20199;-82
2021/04/23 08:54:31;;;;;;;4.07;3.77;;;;;;;15.38;100.00;96541.06;5035249;28;20199;-82
2021/04/23 08:56:58;;;;;;;3.20;3.00;;;;;;;15.15;100.00;96504.06;5035206;28;20211;-83
2021/04/23 08:59:25;;;;;;;4.67;4.20;;;;;;;15.15;100.00;96494.28;5034883;28;20313;-83
2021/04/23 09:01:52;;;;;;;2.93;2.60;;;;;;;15.16;100.00;96345.00;5034738;28;20688;-81
2021/04/23 09:04:19;;;;;;;3.40;3.10;;;;;;;15.29;100.00;96418.50;5034572;28;20703;-81
2021/04/23 09:07:00;;;;;;;3.43;3.13;;;;;;;15.33;100.00;96366.81;5035041;28;20545;-82
2021/04/23 09:09:34;;;;;;;3.50;3.20;;;;;;;15.33;100.00;96360.69;5034837;28;20242;-82
2021/04/23 09:12:18;;;;;;;3.53;2.90;;;;;;;15.40;100.00;96343.88;5034411;28;20242;-82
2021/04/23 09:14:46;;;;;;;5.87;3.73;;;;;;;15.40;100.00;96343.88;5032075;28;20231;-82
2021/04/23 09:17:18;;;;;;;3.50;3.20;;;;;;;15.56;100.00;96373.81;5034513;28;20196;-82
2021/04/23 09:19:45;;;;;;;3.03;2.83;;;;;;;15.66;100.00;96391.06;5034622;28;20247;-82
2021/04/23 09:22:27;;;;;;;4.33;2.73;;;;;;;15.82;100.00;96395.28;5034494;28;20232;-81
2021/04/23 09:24:56;;;;;;;3.83;3.43;;;;;;;15.57;100.00;96391.31;5034528;28;20246;-82
2021/04/23 09:27:28;;;;;;;2.97;2.77;;;;;;;15.61;100.00;96305.16;5034254;28;20201;-83
2021/04/23 09:29:56;;;;;;;2.60;2.40;;;;;;;15.46;100.00;96311.34;5034527;28;20271;-83
2021/04/23 09:32:25;;;;;;;3.13;2.93;;;;;;;15.45;100.00;96330.91;5034045;28;20286;-81
2021/04/23 09:34:55;;;;;;;5.03;2.90;;;;;;;15.62;100.00;96309.44;5034331;28;20200;-82
2021/04/23 09:37:24;;;;;;;3.07;2.83;;;;;;;15.85;100.00;96341.91;5034224;28;20349;-83
2021/04/23 09:39:52;;;;;;;3.73;3.07;;;;;;;15.86;100.00;96415.13;5034307;28;20239;-82
2021/04/23 09:42:20;;;;;;;3.53;2.80;;;;;;;15.76;100.00;96348.38;5033920;28;20202;-82
2021/04/23 09:44:48;;;;;;;6.40;4.80;;;;;;;15.53;100.00;96409.41;5034178;28;20284;-82
2021/04/23 09:47:18;;;;;;;4.70;4.30;;;;;;;15.69;100.00;96514.41;5033923;28;20292;-82
2021/04/23 09:49:46;;;;;;;3.50;3.20;;;;;;;15.78;100.00;96446.22;5034011;28;20697;-82
2021/04/23 09:52:14;;;;;;;3.93;3.63;;;;;;;15.60;100.00;96479.19;5033706;28;20291;-82
2021/04/23 09:54:47;;;;;;;5.30;3.87;;;;;;;15.75;100.00;96488.97;5033946;28;20672;-82
2021/04/23 09:57:17;;;;;;;3.10;2.90;;;;;;;15.66;100.00;96428.16;5033445;28;20193;-82
2021/04/23 09:59:53;;;;;;;2.93;2.70;;;;;;;15.60;100.00;96458.00;5033836;28;20215;-82
2021/04/23 10:02:22;;;;;;;3.40;3.13;;;;;;;15.31;100.00;96436.84;5033443;28;20241;-82
2021/04/23 10:04:49;;;;;;;3.17;2.90;;;;;;;15.31;100.00;96461.50;5033926;28;20247;-83
2021/04/23 10:07:19;;;;;;;3.00;2.80;;;;;;;15.23;100.00;96506.59;5033500;28;20223;-82
2021/04/23 10:10:02;;;;;;;3.30;3.10;;;;;;;15.35;100.00;96496.41;5033783;28;20278;-81
2021/04/23 10:12:37;;;;;;;3.80;2.93;;;;;;;15.37;100.00;96470.53;5032896;28;20331;-82
2021/04/23 10:15:08;;;;;;;4.93;3.40;;;;;;;15.15;100.00;96445.81;5032649;28;20219;-82
2021/04/23 10:17:35;;;;;;;3.00;2.80;;;;;;;14.92;100.00;96494.31;5033365;28;20193;-83
2021/04/23 10:20:04;;;;;;;3.07;2.77;;;;;;;15.07;100.00;96542.03;5033281;28;20232;-82
2021/04/23 10:22:31;;;;;;;3.63;3.33;;;;;;;15.20;100.00;96493.72;5033208;28;20688;-82
2021/04/23 10:24:59;;;;;;;4.67;3.63;;;;;;;15.15;100.00;96443.97;5033339;28;20563;-82
2021/04/23 10:27:26;;;;;;;36.70;21.73;;;;;;;15.02;100.00;96504.66;5033058;28;20203;-82
2021/04/23 10:29:54;;;;;;;5.20;4.73;;;;;;;14.94;100.00;96486.22;5032989;28;20231;-82
2021/04/23 10:32:22;;;;;;;2.90;2.70;;;;;;;14.79;100.00;96427.16;5032912;28;20208;-82
2021/04/23 10:34:49;;;;;;;6.83;4.67;;;;;;;14.66;100.00;96441.84;5033121;28;20242;-82
2021/04/23 10:37:17;;;;;;;3.67;3.37;;;;;;;14.67;100.00;96434.72;5031523;28;20205;-82
2021/04/23 10:39:47;;;;;;;6.33;3.90;;;;;;;14.66;100.00;96463.00;5032808;28;20233;-82
2021/04/23 10:42:49;;;;;;;4.13;3.10;;;;;;;14.64;100.00;96533.78;5033027;28;20271;-82
2021/04/23 10:45:36;;;;;;;4.63;2.90;;;;;;;14.69;100.00;96599.41;5029688;28;20629;-82
2021/04/23 10:48:20;;;;;;;3.20;2.67;;;;;;;14.41;100.00;96602.50;5032768;28;20218;-82
2021/04/23 10:50:48;;;;;;;4.90;3.50;;;;;;;14.39;100.00;96657.38;5020370;28;20636;-82
2021/04/23 10:53:19;;;;;;;10.10;7.80;;;;;;;14.63;100.00;96684.75;5032621;28;20235;-82
2021/04/23 10:55:49;;;;;;;4.73;3.53;;;;;;;14.39;100.00;96678.53;5032627;28;20280;-82
2021/04/23 10:58:35;;;;;;;6.27;4.00;;;;;;;14.37;100.00;96677.88;5032491;28;20282;-82
2021/04/23 11:01:21;;;;;;;3.63;3.27;;;;;;;14.39;100.00;96685.66;5033093;28;20275;-82
2021/04/23 11:04:10;;;;;;;4.43;2.60;;;;;;;14.22;100.00;96676.97;5032255;28;20458;-82
2021/04/23 11:06:38;;;;;;;7.03;5.47;;;;;;;14.23;100.00;96689.19;5032440;28;20716;-82
2021/04/23 11:09:21;;;;;;;7.20;4.40;;;;;;;14.17;100.00;96764.72;5031875;28;20196;-82
2021/04/23 11:12:13;;;;;;;4.23;3.80;;;;;;;14.27;100.00;96781.22;5030502;28;20274;-81
2021/04/23 11:14:42;;;;;;;3.87;3.57;;;;;;;14.23;100.00;96810.78;5032541;28;20579;-82
2021/04/23 11:17:33;;;;;;;4.57;2.83;;;;;;;14.16;100.00;96823.84;5032140;28;20195;-82
2021/04/23 11:20:01;;;;;;;3.00;2.80;;;;;;;14.13;100.00;96855.94;5032313;28;20218;-81
2021/04/23 11:22:30;;;;;;;3.40;3.10;;;;;;;14.03;100.00;96874.59;5031997;28;20230;-80
2021/04/23 11:25:13;;;;;;;6.40;5.90;;;;;;;14.16;100.00;96931.41;5032442;28;20198;-80
2021/04/23 11:28:06;;;;;;;3.23;3.03;;;;;;;14.28;100.00;96904.50;5032347;28;20682;-81
2021/04/23 11:31:08;;;;;;;3.03;2.27;;;;;;;14.28;100.00;96911.59;5032335;28;20206;-80
2021/04/23 11:33:54;;;;;;;3.70;2.77;;;;;;;14.38;100.00;96817.06;5032123;28;20240;-80